Time;durP1;ratioP1;P1;durP2;ratioP2;P2;SDS_P1;SDS_P2;PMS_P1;PMS_P2;Temp;Humidity;BMP_temperature;BMP_pressure;BME280_temperature;BME280_humidity;BME280_pressure;Samples;Min_cycle;Max_cycle;Signal;HPM_P1;HPM_P2
2022/11/09 00:00:38;;;;;;;65.30;6.17;;;14.70;99.90;;;;;;5077201;28;20424;-86
2022/11/09 00:03:04;;;;;;;65.30;5.70;;;14.70;99.90;;;;;;5076866;28;20419;-88
2022/11/09 00:05:30;;;;;;;65.30;6.33;;;14.80;99.90;;;;;;5091533;28;20178;-86
2022/11/09 00:07:56;;;;;;;66.70;6.23;;;14.80;99.90;;;;;;5074770;28;20412;-86
2022/11/09 00:10:22;;;;;;;65.43;6.20;;;14.70;99.90;;;;;;5074651;28;20201;-88
2022/11/09 00:12:48;;;;;;;67.97;7.10;;;14.70;99.90;;;;;;5072476;28;20172;-86
2022/11/09 00:15:13;;;;;;;68.37;7.00;;;14.60;99.90;;;;;;5073912;28;20245;-87
2022/11/09 00:17:39;;;;;;;65.50;7.17;;;14.60;99.90;;;;;;5073372;28;20396;-87
2022/11/09 00:20:05;;;;;;;67.50;8.30;;;14.60;99.90;;;;;;5073169;28;20177;-87
2022/11/09 00:22:31;;;;;;;66.27;7.00;;;14.60;99.90;;;;;;5073403;28;20236;-86
2022/11/09 00:24:56;;;;;;;64.90;6.30;;;14.50;99.90;;;;;;5088763;28;20971;-87
2022/11/09 00:27:22;;;;;;;66.90;8.20;;;14.50;99.90;;;;;;5072473;28;20168;-87
2022/11/09 00:29:51;;;;;;;67.43;7.47;;;14.50;99.90;;;;;;5071153;28;20182;-87
2022/11/09 00:32:19;;;;;;;65.40;7.90;;;14.40;99.90;;;;;;5072810;28;20578;-88
2022/11/09 00:34:45;;;;;;;69.27;7.70;;;14.50;99.90;;;;;;5071082;28;20474;-88
2022/11/09 00:37:14;;;;;;;66.20;7.30;;;14.50;99.90;;;;;;5069342;28;20411;-87
2022/11/09 00:39:39;;;;;;;65.60;7.37;;;14.50;99.90;;;;;;5071752;28;20422;-86
2022/11/09 00:42:06;;;;;;;65.30;6.20;;;14.50;99.90;;;;;;5088017;28;20457;-86
2022/11/09 00:44:32;;;;;;;65.60;6.60;;;14.50;99.90;;;;;;5071701;28;20141;-88
2022/11/09 00:46:58;;;;;;;68.03;7.93;;;14.50;99.90;;;;;;5068865;28;20400;-88
2022/11/09 00:49:24;;;;;;;64.67;5.60;;;14.60;99.90;;;;;;5068104;28;20483;-88
2022/11/09 00:51:50;;;;;;;66.13;7.10;;;14.50;99.90;;;;;;5068100;28;20188;-88
2022/11/09 00:54:16;;;;;;;66.90;6.37;;;14.50;99.90;;;;;;5067081;28;20419;-88
2022/11/09 00:56:42;;;;;;;66.27;7.60;;;14.50;99.90;;;;;;5068425;28;20176;-87
2022/11/09 00:59:10;;;;;;;65.00;6.37;;;14.40;99.90;;;;;;5067317;28;20439;-88
2022/11/09 01:01:36;;;;;;;67.00;7.10;;;14.40;99.90;;;;;;5067961;28;20428;-87
2022/11/09 01:04:03;;;;;;;66.60;6.53;;;14.50;99.90;;;;;;5068036;28;20403;-88
2022/11/09 01:06:29;;;;;;;65.87;6.20;;;14.40;99.90;;;;;;5066286;28;20479;-88
2022/11/09 01:08:54;;;;;;;66.47;6.43;;;14.40;99.90;;;;;;5068208;28;20441;-88
2022/11/09 01:11:24;;;;;;;66.40;5.97;;;14.30;99.90;;;;;;5066928;28;20286;-87
2022/11/09 01:13:50;;;;;;;65.87;6.73;;;14.30;99.90;;;;;;5081308;28;20408;-88
2022/11/09 01:16:20;;;;;;;67.27;6.10;;;14.30;99.90;;;;;;5067516;28;20502;-87
2022/11/09 01:18:46;;;;;;;67.20;6.63;;;14.30;99.90;;;;;;5065490;28;20404;-88
2022/11/09 01:21:14;;;;;;;65.30;6.40;;;14.30;99.90;;;;;;5067899;28;20399;-88
2022/11/09 01:23:41;;;;;;;65.97;6.20;;;14.30;99.90;;;;;;5066135;28;20973;-88
2022/11/09 01:26:09;;;;;;;65.40;6.07;;;14.40;99.90;;;;;;5081846;28;20412;-88
2022/11/09 01:28:35;;;;;;;65.77;5.73;;;14.40;99.90;;;;;;5067294;28;20498;-88
2022/11/09 01:31:04;;;;;;;65.20;5.07;;;14.40;99.90;;;;;;5071655;28;20424;-86
2022/11/09 01:33:31;;;;;;;65.23;6.10;;;14.40;99.90;;;;;;5078582;28;20453;-86
2022/11/09 01:36:23;;;;;;;65.37;6.00;;;14.40;99.90;;;;;;5076719;28;20454;-86
2022/11/09 01:38:52;;;;;;;65.97;5.60;;;14.40;99.90;;;;;;5075455;28;20432;-87
2022/11/09 01:41:24;;;;;;;64.77;4.97;;;14.40;99.90;;;;;;5075522;28;20407;-87
2022/11/09 01:44:07;;;;;;;66.00;5.70;;;14.30;99.90;;;;;;5075237;28;20389;-87
2022/11/09 01:46:45;;;;;;;65.33;6.00;;;14.30;99.90;;;;;;5073738;28;20417;-87
2022/11/09 01:49:32;;;;;;;66.47;6.17;;;14.30;99.90;;;;;;5074158;28;20457;-87
2022/11/09 01:52:09;;;;;;;67.03;6.00;;;14.30;99.90;;;;;;5070904;28;20448;-87
2022/11/09 01:54:43;;;;;;;66.57;6.63;;;14.30;99.90;;;;;;5072104;28;20487;-87
2022/11/09 01:57:14;;;;;;;65.37;5.60;;;14.30;99.90;;;;;;5071945;28;20430;-87
2022/11/09 01:59:45;;;;;;;66.70;5.90;;;14.30;99.90;;;;;;5072300;28;20423;-87
2022/11/09 02:02:11;;;;;;;69.77;6.40;;;14.30;99.90;;;;;;5073803;28;20379;-87
2022/11/09 02:04:52;;;;;;;65.07;5.17;;;14.30;99.90;;;;;;5075585;28;20407;-86
2022/11/09 02:07:19;;;;;;;67.37;5.70;;;14.30;99.90;;;;;;5090422;28;20430;-87
2022/11/09 02:10:08;;;;;;;67.40;5.50;;;14.30;99.90;;;;;;5073591;28;20443;-87
2022/11/09 02:12:34;;;;;;;69.50;5.50;;;14.20;99.90;;;;;;5073867;28;20395;-87
2022/11/09 02:15:06;;;;;;;67.30;5.90;;;14.30;99.90;;;;;;5071588;28;20426;-87
2022/11/09 02:17:33;;;;;;;66.10;5.30;;;14.20;99.90;;;;;;5068677;28;20450;-87
2022/11/09 02:19:59;;;;;;;65.53;5.27;;;14.20;99.90;;;;;;5070564;28;20445;-87
2022/11/09 02:22:25;;;;;;;65.60;6.50;;;14.10;99.90;;;;;;5070987;28;20892;-87
2022/11/09 02:24:52;;;;;;;65.90;6.47;;;14.00;99.90;;;;;;5070423;28;20422;-87
2022/11/09 02:27:19;;;;;;;66.20;7.87;;;14.00;99.90;;;;;;5068277;28;20771;-87
2022/11/09 02:29:47;;;;;;;70.27;6.83;;;14.00;99.90;;;;;;5069293;28;20426;-87
2022/11/09 02:32:24;;;;;;;65.73;6.43;;;14.00;99.90;;;;;;5069583;28;20500;-87
2022/11/09 02:34:50;;;;;;;65.80;6.63;;;14.00;99.90;;;;;;5051603;28;20443;-87
2022/11/09 02:37:37;;;;;;;66.30;6.73;;;13.90;99.90;;;;;;5070898;28;20407;-87
2022/11/09 02:40:08;;;;;;;66.30;7.40;;;13.90;99.90;;;;;;5068146;28;20188;-87
2022/11/09 02:42:34;;;;;;;67.20;10.83;;;13.80;99.90;;;;;;5069813;28;20404;-87
2022/11/09 02:45:03;;;;;;;67.07;10.03;;;13.80;99.90;;;;;;5068249;28;20407;-87
2022/11/09 02:47:28;;;;;;;69.00;9.13;;;13.80;99.90;;;;;;5073308;28;20379;-86
2022/11/09 02:49:56;;;;;;;68.13;10.70;;;13.90;99.90;;;;;;5074324;28;20568;-87
2022/11/09 02:52:22;;;;;;;66.50;8.57;;;13.90;99.90;;;;;;5067392;28;20218;-87
2022/11/09 02:54:48;;;;;;;66.40;8.77;;;14.00;99.90;;;;;;5067487;28;20411;-86
2022/11/09 02:57:14;;;;;;;67.10;9.13;;;14.00;99.90;;;;;;5070209;28;20489;-87
2022/11/09 02:59:40;;;;;;;67.23;8.70;;;13.90;99.90;;;;;;5068868;28;20439;-87
2022/11/09 03:02:06;;;;;;;69.30;10.67;;;14.00;99.90;;;;;;5068563;28;20407;-87
2022/11/09 03:04:31;;;;;;;70.03;9.73;;;13.90;99.90;;;;;;5069717;28;20232;-87
2022/11/09 03:07:00;;;;;;;66.00;8.03;;;13.90;99.90;;;;;;5069450;28;20238;-87
2022/11/09 03:09:26;;;;;;;66.40;8.70;;;13.90;99.90;;;;;;5081152;28;20427;-87
2022/11/09 03:11:52;;;;;;;66.90;9.70;;;13.80;99.90;;;;;;5064974;28;20482;-87
2022/11/09 03:14:18;;;;;;;66.40;10.70;;;13.80;99.90;;;;;;5076675;28;20192;-85
2022/11/09 03:16:44;;;;;;;69.80;10.80;;;13.80;99.90;;;;;;5076743;28;20168;-87
2022/11/09 03:19:10;;;;;;;70.17;9.33;;;13.80;99.90;;;;;;5075680;28;20423;-87
2022/11/09 03:21:36;;;;;;;68.03;9.73;;;13.80;99.90;;;;;;5075495;28;20414;-87
2022/11/09 03:24:02;;;;;;;67.17;10.33;;;13.80;99.90;;;;;;5074795;28;20423;-87
2022/11/09 03:26:28;;;;;;;68.50;11.47;;;13.80;99.90;;;;;;5074858;28;20399;-86
2022/11/09 03:28:54;;;;;;;67.77;10.27;;;13.90;99.90;;;;;;5073277;28;20454;-86
2022/11/09 03:31:20;;;;;;;68.60;9.90;;;13.90;99.90;;;;;;5074634;28;20675;-87
2022/11/09 03:33:45;;;;;;;66.40;10.53;;;14.00;99.90;;;;;;5076822;28;20674;-87
2022/11/09 03:36:11;;;;;;;69.90;10.60;;;13.90;99.90;;;;;;5073403;28;20196;-86
2022/11/09 03:38:37;;;;;;;67.10;10.83;;;13.90;99.90;;;;;;5073824;28;20406;-87
2022/11/09 03:41:03;;;;;;;69.60;9.40;;;13.90;99.90;;;;;;5073353;28;20220;-87
2022/11/09 03:43:29;;;;;;;67.10;11.30;;;13.90;99.90;;;;;;5073584;28;20579;-87
2022/11/09 03:45:55;;;;;;;67.60;10.77;;;14.00;99.90;;;;;;5071932;28;20403;-87
2022/11/09 03:48:21;;;;;;;68.63;12.17;;;13.90;99.90;;;;;;5070142;28;20419;-87
2022/11/09 03:50:47;;;;;;;71.50;12.93;;;13.90;99.90;;;;;;5070386;28;20466;-87
2022/11/09 03:53:13;;;;;;;69.37;11.80;;;13.90;99.90;;;;;;5069990;28;20403;-87
2022/11/09 03:55:39;;;;;;;70.60;11.73;;;13.90;99.90;;;;;;5069338;28;20156;-87
2022/11/09 03:58:07;;;;;;;67.90;11.30;;;14.00;99.90;;;;;;5067886;28;20405;-87
2022/11/09 04:00:33;;;;;;;68.07;12.63;;;13.90;99.90;;;;;;5066710;28;20419;-87
2022/11/09 04:02:59;;;;;;;68.97;11.83;;;13.90;99.90;;;;;;5067917;28;20410;-87
2022/11/09 04:05:25;;;;;;;69.40;13.10;;;13.90;99.90;;;;;;5068970;28;20411;-88
2022/11/09 04:07:55;;;;;;;70.10;13.27;;;14.00;99.90;;;;;;5068451;28;20403;-88
2022/11/09 04:10:23;;;;;;;70.10;13.53;;;14.00;99.90;;;;;;5068059;28;20450;-88
2022/11/09 04:12:49;;;;;;;68.30;13.83;;;13.90;99.90;;;;;;5069568;28;20403;-87
2022/11/09 04:15:19;;;;;;;69.50;12.83;;;14.00;99.90;;;;;;5068779;28;20432;-87
2022/11/09 04:17:53;;;;;;;70.80;13.43;;;14.00;99.90;;;;;;5069054;28;20179;-87
2022/11/09 04:20:19;;;;;;;68.07;12.30;;;14.00;99.90;;;;;;5069882;28;20813;-87
2022/11/09 04:22:56;;;;;;;67.30;11.37;;;14.00;99.90;;;;;;5068915;28;20421;-87
2022/11/09 04:25:22;;;;;;;69.53;15.07;;;14.00;99.90;;;;;;5068375;28;20897;-87
2022/11/09 04:27:52;;;;;;;67.10;10.47;;;14.00;99.90;;;;;;5068197;28;20411;-87
2022/11/09 04:30:18;;;;;;;69.70;12.83;;;14.00;99.90;;;;;;5066967;28;20521;-87
2022/11/09 04:32:44;;;;;;;71.70;11.70;;;14.00;99.90;;;;;;5066798;28;20418;-88
2022/11/09 04:35:10;;;;;;;69.37;11.00;;;14.00;99.90;;;;;;5068769;28;20220;-87
2022/11/09 04:37:35;;;;;;;69.27;11.83;;;14.00;99.90;;;;;;5068428;28;20407;-87
2022/11/09 04:40:01;;;;;;;69.97;11.93;;;14.00;99.90;;;;;;5071103;28;20240;-87
2022/11/09 04:42:27;;;;;;;71.70;12.70;;;14.10;99.90;;;;;;5069156;28;20164;-87
2022/11/09 04:44:52;;;;;;;69.97;13.93;;;14.10;99.90;;;;;;5068116;28;20178;-87
2022/11/09 04:47:18;;;;;;;69.10;12.13;;;14.10;99.90;;;;;;5069048;28;20196;-87
2022/11/09 04:49:47;;;;;;;70.47;12.60;;;14.00;99.90;;;;;;5068316;28;20219;-87
2022/11/09 04:52:13;;;;;;;69.70;16.23;;;14.00;99.90;;;;;;5068689;28;20193;-87
2022/11/09 04:54:38;;;;;;;72.00;16.77;;;14.00;99.90;;;;;;5069555;28;20418;-87
2022/11/09 04:57:04;;;;;;;69.10;15.33;;;14.00;99.90;;;;;;5075063;28;20793;-86
2022/11/09 04:59:30;;;;;;;70.00;17.10;;;14.00;99.90;;;;;;5073478;28;20219;-87
2022/11/09 05:01:55;;;;;;;70.10;15.60;;;14.00;99.90;;;;;;5073155;28;20422;-87
2022/11/09 05:04:22;;;;;;;70.13;16.10;;;13.90;99.90;;;;;;5071196;28;20179;-87
2022/11/09 05:06:50;;;;;;;68.00;15.17;;;13.90;99.90;;;;;;5070923;28;20236;-87
2022/11/09 05:09:19;;;;;;;70.67;17.63;;;13.80;99.90;;;;;;5069906;28;20465;-86
2022/11/09 05:11:45;;;;;;;70.80;18.80;;;13.80;99.90;;;;;;5067473;28;20447;-87
2022/11/09 05:14:10;;;;;;;71.07;19.30;;;13.80;99.90;;;;;;5065676;28;20996;-87
2022/11/09 05:16:36;;;;;;;73.57;22.47;;;13.70;99.90;;;;;;5065960;28;20415;-87
2022/11/09 05:19:02;;;;;;;73.53;28.43;;;13.60;99.90;;;;;;5067808;28;20189;-87
2022/11/09 05:21:28;;;;;;;72.80;26.10;;;13.60;99.90;;;;;;5067172;28;20156;-87
2022/11/09 05:23:59;;;;;;;71.47;23.13;;;13.60;99.90;;;;;;5066192;28;20192;-86
2022/11/09 05:26:34;;;;;;;70.70;22.77;;;13.60;99.90;;;;;;5066960;28;20149;-86
2022/11/09 05:29:02;;;;;;;69.00;17.63;;;13.60;99.90;;;;;;5066377;28;20422;-87
2022/11/09 05:31:28;;;;;;;70.10;19.13;;;13.60;99.90;;;;;;5065080;28;20495;-87
2022/11/09 05:33:54;;;;;;;73.10;19.53;;;13.60;99.90;;;;;;5133460;23;20445;-85
2022/11/09 05:36:21;;;;;;;70.50;18.37;;;13.50;99.90;;;;;;5077150;28;20433;-84
2022/11/09 05:38:48;;;;;;;70.60;19.70;;;13.50;99.90;;;;;;5078483;28;20426;-83
2022/11/09 05:41:14;;;;;;;73.40;20.10;;;13.50;99.90;;;;;;5078622;28;20399;-84
2022/11/09 05:43:40;;;;;;;69.43;17.10;;;13.50;99.90;;;;;;5078380;28;20404;-84
2022/11/09 05:46:06;;;;;;;69.87;18.87;;;13.50;99.90;;;;;;5077996;28;20410;-84
2022/11/09 05:48:31;;;;;;;71.57;18.43;;;13.40;99.90;;;;;;5078268;28;20175;-84
2022/11/09 05:51:04;;;;;;;70.37;19.10;;;13.40;99.90;;;;;;5077944;28;20449;-84
2022/11/09 05:53:30;;;;;;;73.47;20.70;;;13.40;99.90;;;;;;5076946;28;20247;-84
2022/11/09 05:56:06;;;;;;;71.87;20.67;;;13.30;99.90;;;;;;5076477;28;20434;-84
2022/11/09 05:58:35;;;;;;;73.20;21.37;;;13.30;99.90;;;;;;5078299;28;20451;-83
2022/11/09 06:01:21;;;;;;;70.73;22.07;;;13.30;99.90;;;;;;5076729;28;20414;-84
2022/11/09 06:03:46;;;;;;;76.30;23.93;;;13.30;99.90;;;;;;5078249;28;20566;-84
2022/11/09 06:06:14;;;;;;;72.57;26.23;;;13.30;99.90;;;;;;5078489;28;20406;-84
2022/11/09 06:08:40;;;;;;;75.07;24.83;;;13.30;99.90;;;;;;5076218;28;20236;-84
2022/11/09 06:11:10;;;;;;;73.93;30.37;;;13.30;99.90;;;;;;5077923;28;20481;-83
2022/11/09 06:13:36;;;;;;;78.23;35.23;;;13.30;99.90;;;;;;5076590;28;20410;-83
2022/11/09 06:16:04;;;;;;;76.80;35.47;;;13.20;99.90;;;;;;5077551;28;20909;-84
2022/11/09 06:18:31;;;;;;;78.10;40.53;;;13.20;99.90;;;;;;5078583;28;20409;-83
2022/11/09 06:20:59;;;;;;;78.70;38.07;;;13.20;99.90;;;;;;5078227;28;20433;-84
2022/11/09 06:23:26;;;;;;;79.77;38.80;;;13.20;99.90;;;;;;5077165;28;20517;-83
2022/11/09 06:25:56;;;;;;;74.20;29.90;;;13.20;99.90;;;;;;5078730;28;20398;-83
2022/11/09 06:28:24;;;;;;;75.00;27.70;;;13.30;99.90;;;;;;5076879;28;20492;-83
2022/11/09 06:30:50;;;;;;;77.97;37.10;;;13.30;99.90;;;;;;5059563;28;20454;-83
2022/11/09 06:33:16;;;;;;;75.10;33.37;;;13.20;99.90;;;;;;5078348;28;20402;-83
2022/11/09 06:35:42;;;;;;;80.77;40.73;;;13.30;99.90;;;;;;5077894;28;20785;-83
2022/11/09 06:38:08;;;;;;;84.53;52.43;;;13.20;99.90;;;;;;5077599;28;20163;-83
2022/11/09 06:40:35;;;;;;;87.83;55.20;;;13.20;99.90;;;;;;5077954;28;20192;-83
2022/11/09 06:43:02;;;;;;;71.67;20.47;;;13.20;99.90;;;;;;5076008;28;20426;-83
2022/11/09 06:45:29;;;;;;;69.17;16.40;;;13.30;99.90;;;;;;5077858;28;20410;-83
2022/11/09 06:47:56;;;;;;;71.20;18.77;;;13.40;99.90;;;;;;5077178;28;20406;-83
2022/11/09 06:50:22;;;;;;;69.73;16.80;;;13.30;99.90;;;;;;5077417;28;20433;-83
2022/11/09 06:52:48;;;;;;;70.87;19.50;;;13.30;99.90;;;;;;5076213;28;20418;-83
2022/11/09 06:55:13;;;;;;;71.10;21.00;;;13.20;99.90;;;;;;5077830;28;20175;-83
2022/11/09 06:57:39;;;;;;;72.70;23.20;;;13.20;99.90;;;;;;5077317;28;20168;-83
2022/11/09 07:00:06;;;;;;;72.07;20.43;;;13.10;99.90;;;;;;5076806;28;20214;-83
2022/11/09 07:02:32;;;;;;;73.63;20.30;;;13.00;99.90;;;;;;5077321;28;20218;-83
2022/11/09 07:04:58;;;;;;;70.40;20.30;;;12.90;99.90;;;;;;5077430;28;20456;-83
2022/11/09 07:07:23;;;;;;;74.00;20.47;;;12.80;99.90;;;;;;5079756;28;20402;-83
2022/11/09 07:09:49;;;;;;;72.27;18.67;;;12.70;99.90;;;;;;5080383;28;20250;-83
2022/11/09 07:12:15;;;;;;;73.77;22.20;;;12.80;99.90;;;;;;5081442;28;20223;-83
2022/11/09 07:14:41;;;;;;;76.40;29.57;;;12.70;99.90;;;;;;5082614;28;20148;-83
2022/11/09 07:17:06;;;;;;;75.17;20.07;;;12.80;99.90;;;;;;5086620;28;20160;-83
2022/11/09 07:19:32;;;;;;;83.90;27.60;;;12.80;99.90;;;;;;5081507;28;20421;-83
2022/11/09 07:21:58;;;;;;;74.00;23.17;;;12.80;99.90;;;;;;5081318;28;20172;-83
2022/11/09 07:24:24;;;;;;;70.90;17.80;;;12.90;99.90;;;;;;5083892;28;20205;-83
2022/11/09 07:26:53;;;;;;;71.20;18.17;;;13.00;99.90;;;;;;5081419;28;20406;-83
2022/11/09 07:29:18;;;;;;;76.10;16.23;;;13.00;99.90;;;;;;5084060;28;20239;-84
2022/11/09 07:31:44;;;;;;;73.87;19.53;;;13.00;99.90;;;;;;5082626;28;20828;-83
2022/11/09 07:34:10;;;;;;;72.10;17.10;;;13.00;99.90;;;;;;5083359;28;20163;-83
2022/11/09 07:36:35;;;;;;;71.47;20.23;;;13.00;99.90;;;;;;5081485;28;20156;-83
2022/11/09 07:39:02;;;;;;;72.87;19.77;;;13.00;99.90;;;;;;5079825;28;20183;-83
2022/11/09 07:41:27;;;;;;;72.07;19.43;;;13.00;99.90;;;;;;5079279;28;20182;-83
2022/11/09 07:43:56;;;;;;;73.37;19.33;;;13.00;99.90;;;;;;5083881;28;20398;-83
2022/11/09 07:46:22;;;;;;;72.10;16.27;;;13.10;99.90;;;;;;5084335;28;20651;-83
2022/11/09 07:48:48;;;;;;;70.87;16.37;;;13.20;99.90;;;;;;5084918;28;20539;-83
2022/11/09 07:51:13;;;;;;;70.50;16.57;;;13.20;99.90;;;;;;5080981;28;20192;-83
2022/11/09 07:53:39;;;;;;;73.50;18.70;;;13.20;99.90;;;;;;5084119;28;20525;-83
2022/11/09 07:56:05;;;;;;;79.03;15.00;;;13.30;99.90;;;;;;5084474;28;20167;-83
2022/11/09 07:58:33;;;;;;;76.43;30.00;;;13.30;99.90;;;;;;5084171;28;20171;-83
2022/11/09 08:00:59;;;;;;;77.77;27.50;;;13.30;99.90;;;;;;5083393;28;20429;-82
2022/11/09 08:03:24;;;;;;;76.90;27.77;;;13.40;99.90;;;;;;5083238;28;20418;-83
2022/11/09 08:05:50;;;;;;;72.07;20.83;;;13.50;99.90;;;;;;5081179;28;20442;-83
2022/11/09 08:08:16;;;;;;;71.10;14.47;;;13.50;99.90;;;;;;5081944;28;20192;-83
2022/11/09 08:10:44;;;;;;;73.60;16.97;;;13.60;99.90;;;;;;5081307;28;20983;-83
2022/11/09 08:13:12;;;;;;;70.77;16.83;;;13.70;99.90;;;;;;5082459;28;20402;-82
2022/11/09 08:15:39;;;;;;;72.80;18.27;;;13.70;99.90;;;;;;5084866;28;20398;-82
2022/11/09 08:18:09;;;;;;;69.60;19.17;;;13.70;99.90;;;;;;5080547;28;20418;-82
2022/11/09 08:20:35;;;;;;;75.43;16.60;;;13.70;99.90;;;;;;5085629;28;20426;-82
2022/11/09 08:23:01;;;;;;;72.97;18.70;;;13.70;99.90;;;;;;5087457;28;20402;-82
2022/11/09 08:25:26;;;;;;;73.30;22.10;;;13.80;99.90;;;;;;5085870;28;20410;-82
2022/11/09 08:27:54;;;;;;;73.30;21.00;;;13.80;99.90;;;;;;5083716;28;20945;-83
2022/11/09 08:30:20;;;;;;;72.20;23.00;;;13.90;99.90;;;;;;5086112;28;20217;-82
2022/11/09 08:32:48;;;;;;;70.30;20.80;;;14.00;99.90;;;;;;5086135;28;20485;-82
2022/11/09 08:35:17;;;;;;;70.50;20.03;;;13.90;99.90;;;;;;5084964;28;20429;-82
2022/11/09 08:37:45;;;;;;;71.30;21.50;;;13.90;99.90;;;;;;5084044;28;20418;-83
2022/11/09 08:40:16;;;;;;;72.00;22.57;;;14.10;99.90;;;;;;5085739;28;20425;-82
2022/11/09 08:42:45;;;;;;;73.53;22.60;;;14.10;99.90;;;;;;5082684;28;20457;-83
2022/11/09 08:45:11;;;;;;;70.40;17.97;;;14.10;99.90;;;;;;5085778;28;20426;-82
2022/11/09 08:47:37;;;;;;;71.90;16.53;;;14.20;99.90;;;;;;5086836;28;20390;-82
2022/11/09 08:50:04;;;;;;;72.67;18.03;;;14.10;99.90;;;;;;5081907;28;20451;-83
2022/11/09 08:52:30;;;;;;;66.93;13.30;;;14.20;99.90;;;;;;5079963;28;20457;-82
2022/11/09 08:54:55;;;;;;;66.90;13.40;;;14.30;99.90;;;;;;5079773;28;20395;-83
2022/11/09 08:57:21;;;;;;;68.13;15.33;;;14.20;99.90;;;;;;5083671;28;20758;-83
2022/11/09 08:59:47;;;;;;;67.47;11.47;;;14.20;99.90;;;;;;5084468;28;20184;-83
2022/11/09 09:02:13;;;;;;;67.70;10.30;;;14.20;99.90;;;;;;5079871;28;20402;-83
2022/11/09 09:04:39;;;;;;;67.07;10.47;;;14.10;99.90;;;;;;5080895;28;20631;-82
2022/11/09 09:07:05;;;;;;;68.60;11.10;;;14.10;99.90;;;;;;5078666;28;20544;-82
2022/11/09 09:09:36;;;;;;;71.87;10.53;;;14.10;99.90;;;;;;5062868;28;20438;-82
2022/11/09 09:12:02;;;;;;;68.87;11.33;;;14.10;99.90;;;;;;5077274;28;20439;-82
2022/11/09 09:14:28;;;;;;;70.57;13.73;;;14.10;99.90;;;;;;5078282;28;20497;-82
2022/11/09 09:16:54;;;;;;;70.33;11.13;;;14.10;99.90;;;;;;5080655;28;20826;-82
2022/11/09 09:19:20;;;;;;;66.47;11.80;;;14.10;99.90;;;;;;5080227;28;20454;-82
2022/11/09 09:21:46;;;;;;;68.03;13.50;;;14.10;99.90;;;;;;5083146;28;20414;-82
2022/11/09 09:24:12;;;;;;;70.37;12.50;;;14.20;99.90;;;;;;5082174;28;21045;-82
2022/11/09 09:26:38;;;;;;;74.60;19.80;;;14.10;99.90;;;;;;5079148;28;20410;-82
2022/11/09 09:29:03;;;;;;;70.83;16.27;;;14.10;99.90;;;;;;5079645;28;20195;-82
2022/11/09 09:31:29;;;;;;;70.17;14.27;;;14.10;99.90;;;;;;5079451;28;20539;-82
2022/11/09 09:33:55;;;;;;;68.40;15.37;;;14.10;99.90;;;;;;5080007;28;20209;-82
2022/11/09 09:36:23;;;;;;;69.97;15.63;;;14.30;99.90;;;;;;5077977;28;20168;-82
2022/11/09 09:38:53;;;;;;;67.97;13.23;;;14.40;99.90;;;;;;5080428;28;20198;-83
2022/11/09 09:41:50;;;;;;;69.50;9.90;;;14.50;99.90;;;;;;5080132;28;20402;-83
2022/11/09 09:44:38;;;;;;;67.43;6.63;;;14.70;99.90;;;;;;5080390;28;20873;-83
2022/11/09 09:47:16;;;;;;;65.17;5.90;;;14.80;99.90;;;;;;5079666;28;20418;-83
2022/11/09 09:49:51;;;;;;;67.17;7.00;;;14.90;99.90;;;;;;5079384;28;20422;-83
2022/11/09 09:52:43;;;;;;;68.70;8.87;;;15.00;99.90;;;;;;5077989;28;20434;-82
2022/11/09 09:55:18;;;;;;;67.73;6.60;;;14.90;99.90;;;;;;5079399;28;20841;-83
2022/11/09 09:57:50;;;;;;;67.17;8.10;;;14.80;99.90;;;;;;5078340;28;20378;-83
2022/11/09 10:00:23;;;;;;;66.57;7.70;;;14.90;99.90;;;;;;5076183;28;20476;-83
2022/11/09 10:02:50;;;;;;;68.20;7.50;;;14.90;99.90;;;;;;5076775;28;20406;-83
2022/11/09 10:05:17;;;;;;;68.50;8.67;;;15.00;99.90;;;;;;5078497;28;20395;-82
2022/11/09 10:07:47;;;;;;;67.40;7.63;;;15.00;99.90;;;;;;5077725;28;20400;-82
2022/11/09 10:10:37;;;;;;;65.47;7.33;;;15.00;99.90;;;;;;5078865;28;20455;-82
2022/11/09 10:13:47;;;;;;;67.57;6.30;;;15.10;99.90;;;;;;5076707;28;20798;-82
2022/11/09 10:16:37;;;;;;;67.77;7.00;;;15.20;99.90;;;;;;5075838;28;20395;-82
2022/11/09 10:19:32;;;;;;;65.67;5.30;;;15.30;99.90;;;;;;5076631;28;20470;-82
2022/11/09 10:22:15;;;;;;;66.07;5.27;;;15.40;98.60;;;;;;5078375;28;20398;-82
2022/11/09 10:25:02;;;;;;;64.77;3.70;;;15.30;91.30;;;;;;5077647;28;20402;-83
2022/11/09 10:27:35;;;;;;;65.90;3.67;;;15.30;89.50;;;;;;5077502;28;20472;-82
2022/11/09 10:30:11;;;;;;;68.77;4.43;;;15.40;77.40;;;;;;5076947;28;20474;-82
2022/11/09 10:32:37;;;;;;;67.80;5.10;;;15.30;75.70;;;;;;5076780;28;20444;-83
2022/11/09 10:35:14;;;;;;;65.67;4.03;;;15.30;86.80;;;;;;5078620;28;20421;-83
2022/11/09 10:37:53;;;;;;;70.80;4.43;;;15.30;73.20;;;;;;5077058;28;20414;-82
2022/11/09 10:40:48;;;;;;;65.30;2.90;;;15.40;78.20;;;;;;5076925;28;20937;-82
2022/11/09 10:43:14;;;;;;;67.23;3.10;;;15.50;53.50;;;;;;5082455;28;20397;-82
2022/11/09 10:45:42;;;;;;;69.20;3.17;;;15.40;60.70;;;;;;5082817;28;20841;-83
2022/11/09 10:48:10;;;;;;;80.63;3.00;;;15.50;65.90;;;;;;5083383;28;20498;-83
2022/11/09 10:50:53;;;;;;;67.47;2.67;;;15.60;62.10;;;;;;5083421;28;20823;-82
2022/11/09 10:53:20;;;;;;;68.30;3.43;;;15.60;63.40;;;;;;5082411;28;20448;-82
2022/11/09 10:55:57;;;;;;;66.67;3.37;;;15.60;61.10;;;;;;5083750;28;20394;-81
2022/11/09 10:58:38;;;;;;;65.87;3.07;;;15.40;54.00;;;;;;5083248;28;20378;-82
2022/11/09 11:01:23;;;;;;;69.70;3.13;;;15.40;57.20;;;;;;5083015;28;20448;-82
2022/11/09 11:03:52;;;;;;;66.30;3.00;;;15.30;56.30;;;;;;5083034;28;20388;-82
2022/11/09 11:06:26;;;;;;;64.87;2.57;;;15.40;56.90;;;;;;5082721;28;20406;-83
2022/11/09 11:09:04;;;;;;;65.00;2.90;;;15.50;48.00;;;;;;5083005;28;20779;-82
2022/11/09 11:11:31;;;;;;;66.37;3.17;;;15.50;49.50;;;;;;5079160;28;20452;-80
2022/11/09 11:14:12;;;;;;;68.50;2.70;;;15.50;40.30;;;;;;5080087;28;20400;-81
2022/11/09 11:16:39;;;;;;;66.60;3.00;;;15.50;38.90;;;;;;5080244;28;20387;-81
2022/11/09 11:19:26;;;;;;;67.53;2.70;;;15.60;41.20;;;;;;5080084;28;20796;-81
2022/11/09 11:22:22;;;;;;;67.13;3.00;;;15.60;26.90;;;;;;5078857;28;20397;-81
2022/11/09 11:24:59;;;;;;;69.87;3.50;;;15.60;36.00;;;;;;5081359;28;20422;-82
2022/11/09 11:27:31;;;;;;;65.40;3.00;;;15.70;35.20;;;;;;5078941;28;20411;-81
2022/11/09 11:30:13;;;;;;;70.20;3.07;;;15.70;37.00;;;;;;5078978;28;20794;-81
2022/11/09 11:32:38;;;;;;;66.17;2.87;;;15.70;35.40;;;;;;5077261;28;20415;-82
2022/11/09 11:35:11;;;;;;;66.00;2.30;;;15.80;31.00;;;;;;5192883;22;20548;-87
2022/11/09 11:37:52;;;;;;;69.40;3.90;;;15.70;32.50;;;;;;5101012;28;20402;-87
2022/11/09 11:40:24;;;;;;;65.67;2.77;;;15.70;37.50;;;;;;5099907;28;20415;-87
2022/11/09 11:43:14;;;;;;;67.87;2.53;;;15.70;38.80;;;;;;5089795;28;20387;-87
2022/11/09 11:45:48;;;;;;;68.07;3.10;;;15.70;38.70;;;;;;5098426;28;20442;-86
2022/11/09 11:48:27;;;;;;;66.03;3.43;;;15.60;41.40;;;;;;5096628;28;20389;-86
2022/11/09 11:51:15;;;;;;;70.60;3.57;;;15.60;36.70;;;;;;5096159;28;20455;-87
2022/11/09 11:53:59;;;;;;;66.70;2.80;;;15.60;37.80;;;;;;5094376;28;20393;-88
2022/11/09 11:56:34;;;;;;;66.47;3.00;;;15.90;48.50;;;;;;5092688;28;20894;-87
2022/11/09 11:59:31;;;;;;;71.10;3.53;;;15.80;35.80;;;;;;5087712;28;20435;-86
2022/11/09 12:01:57;;;;;;;68.50;3.63;;;15.70;29.30;;;;;;5083458;28;20402;-87
2022/11/09 12:05:06;;;;;;;68.30;3.60;;;15.60;21.10;;;;;;5081215;28;20445;-86
2022/11/09 12:07:57;;;;;;;68.63;3.20;;;15.60;25.10;;;;;;5081285;28;20152;-86
2022/11/09 12:10:48;;;;;;;67.27;3.47;;;15.50;23.90;;;;;;5082942;28;20585;-87
2022/11/09 12:13:51;;;;;;;67.97;3.70;;;15.40;25.80;;;;;;5085074;28;20409;-86
2022/11/09 12:16:44;;;;;;;67.90;3.50;;;15.60;26.00;;;;;;5084312;28;20929;-87
2022/11/09 12:19:19;;;;;;;70.30;3.47;;;15.60;23.90;;;;;;5084088;28;20402;-87
2022/11/09 12:22:12;;;;;;;70.43;3.63;;;15.60;22.60;;;;;;5082186;28;20406;-87
2022/11/09 12:24:49;;;;;;;70.93;5.00;;;15.70;24.10;;;;;;5081367;28;20376;-86
2022/11/09 12:27:40;;;;;;;66.60;5.70;;;15.70;23.30;;;;;;5081235;28;20394;-87
2022/11/09 12:30:16;;;;;;;66.97;4.40;;;15.80;19.60;;;;;;5082620;28;20454;-87
2022/11/09 12:32:51;;;;;;;70.90;4.20;;;15.80;23.30;;;;;;5080954;28;20790;-87
2022/11/09 12:35:25;;;;;;;68.40;5.10;;;15.80;23.00;;;;;;5082406;28;20409;-87
2022/11/09 12:38:02;;;;;;;70.37;8.10;;;15.70;19.70;;;;;;5080847;28;20407;-87
2022/11/09 12:40:47;;;;;;;73.03;7.37;;;15.70;16.10;;;;;;5081308;28;20431;-87
2022/11/09 12:43:20;;;;;;;78.30;16.90;;;15.70;18.80;;;;;;5080765;28;20409;-87
2022/11/09 12:45:48;;;;;;;73.87;15.00;;;15.90;13.00;;;;;;5081862;28;20377;-87